Jessica S. Settoon — WDD9545 — position and weather

sailwx.info

Track history (hours):
 
Tides and Currents Weather Stations Pressure Air Temp Water Temp Dewpoint Dewpoint Depression Visibility Wind Speed Wind Dir Waves Ship Positions

Jessica S. Settoon

Owner: Settoon Towing LLC, Houma, LA. More information available from US FCC via Universal Licensing System and Coast Guard Vessel Documentation Center.

Last reported at 2017-Dec-11 09:48 UTC. Time now 2017-Dec-12 20:06 UTC.
Position N 29°36' W 090°58'.

Length 17 m; draft 3 m.

Type: Tug. MMSI: 367312940.

Date/timePositionNaut miles runAvg speedWind from/ knotsBaromVisibWave heightAir tempDewpointWater temp
2017-Dec-11 09:48N 29°36' W 090°58'2 5.3
2017-Dec-11 09:28N 29°35' W 090°57'3 5.6
2017-Dec-11 09:00N 29°33' W 090°55'3 5.6
2017-Dec-11 08:30N 29°32' W 090°52'3 5.8
2017-Dec-11 08:00N 29°32' W 090°49'3 5.1
2017-Dec-11 07:30N 29°32' W 090°46'3 5.0
2017-Dec-11 07:00N 29°34' W 090°43'3 5.1
2017-Dec-11 06:30N 29°36' W 090°43'2 3.9
2017-Dec-11 06:00N 29°36' W 090°40'2 3.3
2017-Dec-11 05:30N 29°35' W 090°39'3 5.1
2017-Dec-11 05:00N 29°35' W 090°36'3 5.2
2017-Dec-11 04:30N 29°34' W 090°33'3 5.3
2017-Dec-11 04:00N 29°34' W 090°30'3 5.4
2017-Dec-11 03:30N 29°33' W 090°27'3 4.8
2017-Dec-11 02:53N 29°34' W 090°23'8 0.3
2017-Dec-09 21:25N 29°34' W 090°33'3 7.0
2017-Dec-09 21:00N 29°35' W 090°36'4 6.8
2017-Dec-09 20:29N 29°36' W 090°40'2 4.7
2017-Dec-09 20:00N 29°36' W 090°43'2 4.9
2017-Dec-09 19:30N 29°34' W 090°44'2 4.5
2017-Dec-09 19:00N 29°33' W 090°46'11 0.3
2017-Dec-08 03:56N 29°36' W 090°58'2 5.5
2017-Dec-08 03:30N 29°34' W 090°56'3 6.0
2017-Dec-08 02:59N 29°32' W 090°53'3 5.9
2017-Dec-08 02:30N 29°32' W 090°50'3 6.0
2017-Dec-08 02:00N 29°32' W 090°46'3 5.1
2017-Dec-08 01:30N 29°34' W 090°44'1 2.5
2017-Dec-08 01:00N 29°35' W 090°43'2 3.4
2017-Dec-08 00:30N 29°33' W 090°42'2 4.9
2017-Dec-08 00:00N 29°31' W 090°43'3 5.6
2017-Dec-07 23:30N 29°28' W 090°43'3 5.6
2017-Dec-07 22:56N 29°25' W 090°44'2 0.1
2017-Dec-07 06:59N 29°23' W 090°44'3 5.8
2017-Dec-07 06:29N 29°26' W 090°43'3 6.3
2017-Dec-07 06:00N 29°29' W 090°43'3 6.8
2017-Dec-07 05:30N 29°32' W 090°42'2 4.4
2017-Dec-07 05:00N 29°34' W 090°44'2 4.8
2017-Dec-07 04:30N 29°32' W 090°46'3 6.5
2017-Dec-07 04:00N 29°32' W 090°49'  
Track history (hours):
 
Tides and Currents Weather Stations Pressure Air Temp Water Temp Dewpoint Dewpoint Depression Visibility Wind Speed Wind Dir Waves Ship Positions

Jessica S. Settoon

Owner: Settoon Towing LLC, Houma, LA. More information available from US FCC via Universal Licensing System and Coast Guard Vessel Documentation Center.

Last reported at 2017-Dec-11 09:48 UTC. Time now 2017-Dec-12 20:06 UTC.
Position N 29°36' W 090°58'.

Length 17 m; draft 3 m.

Type: Tug. MMSI: 367312940.

Date/timePositionNaut miles runAvg speedWind from/ knotsBaromVisibWave heightAir tempDewpointWater temp
2017-Dec-11 09:48N 29°36' W 090°58'2 5.3
2017-Dec-11 09:28N 29°35' W 090°57'3 5.6
2017-Dec-11 09:00N 29°33' W 090°55'3 5.6
2017-Dec-11 08:30N 29°32' W 090°52'3 5.8
2017-Dec-11 08:00N 29°32' W 090°49'3 5.1
2017-Dec-11 07:30N 29°32' W 090°46'3 5.0
2017-Dec-11 07:00N 29°34' W 090°43'3 5.1
2017-Dec-11 06:30N 29°36' W 090°43'2 3.9
2017-Dec-11 06:00N 29°36' W 090°40'2 3.3
2017-Dec-11 05:30N 29°35' W 090°39'3 5.1
2017-Dec-11 05:00N 29°35' W 090°36'3 5.2
2017-Dec-11 04:30N 29°34' W 090°33'3 5.3
2017-Dec-11 04:00N 29°34' W 090°30'3 5.4
2017-Dec-11 03:30N 29°33' W 090°27'3 4.8
2017-Dec-11 02:53N 29°34' W 090°23'8 0.3
2017-Dec-09 21:25N 29°34' W 090°33'3 7.0
2017-Dec-09 21:00N 29°35' W 090°36'4 6.8
2017-Dec-09 20:29N 29°36' W 090°40'2 4.7
2017-Dec-09 20:00N 29°36' W 090°43'2 4.9
2017-Dec-09 19:30N 29°34' W 090°44'2 4.5
2017-Dec-09 19:00N 29°33' W 090°46'11 0.3
2017-Dec-08 03:56N 29°36' W 090°58'2 5.5
2017-Dec-08 03:30N 29°34' W 090°56'3 6.0
2017-Dec-08 02:59N 29°32' W 090°53'3 5.9
2017-Dec-08 02:30N 29°32' W 090°50'3 6.0
2017-Dec-08 02:00N 29°32' W 090°46'3 5.1
2017-Dec-08 01:30N 29°34' W 090°44'1 2.5
2017-Dec-08 01:00N 29°35' W 090°43'2 3.4
2017-Dec-08 00:30N 29°33' W 090°42'2 4.9
2017-Dec-08 00:00N 29°31' W 090°43'3 5.6
2017-Dec-07 23:30N 29°28' W 090°43'3 5.6
2017-Dec-07 22:56N 29°25' W 090°44'2 0.1
2017-Dec-07 06:59N 29°23' W 090°44'3 5.8
2017-Dec-07 06:29N 29°26' W 090°43'3 6.3
2017-Dec-07 06:00N 29°29' W 090°43'3 6.8
2017-Dec-07 05:30N 29°32' W 090°42'2 4.4
2017-Dec-07 05:00N 29°34' W 090°44'2 4.8
2017-Dec-07 04:30N 29°32' W 090°46'3 6.5
2017-Dec-07 04:00N 29°32' W 090°49'  

Dump ship's entire track history